Terminal Aerodrome Forecast
Issued by NWS

Home | Current Version | Previous Version | Text Only | Print | Product List | Glossary On
Versions: 1 2 3 4 5 6 7 8 9 10 11 12 13 14 15 16 17 18 19 20 21 22 23 24 25 26 27 28 29 30 31 32 33 34 35 36 37 38 39 40 41 42 43 44 45 46 47 48 49 50
000
FTUS45 KBOU 070223 AAA
TAFBJC
TAF AMD
KBJC 070223Z 0702/0724 36010KT P6SM VCSH SCT020 BKN040 OVC080
     FM070400 04007KT P6SM VCSH SCT015 OVC030
     FM070500 VRB05KT P6SM SCT008 BKN015
     FM071000 VRB05KT 1SM BR BKN004
     FM071500 07006KT 4SM BR OVC008
     FM071800 10009KT P6SM SCT025 BKN050 OVC100
      TEMPO 0721/0724 VRB15G30KT -TSRA BKN020CB=

USA.gov is the U.S. government's official web portal to all federal, state and local government web resources and services.